LATI/TIA METAR and TAF weather

Enter ICAO airport designator
Station Type Date Time Source
LATI METAR 2019/02/18 04:20 UTC NOAA

LATI 180420Z 16003KT CAVOK M00/M01 Q1025 NOSIG


Station Type Date Time Source
LATI Decoded METAR 2019/02/18 04:20 UTC NOAA

Tirana, Albania (LATI) 41-20N 019-47E 90M
Feb 17, 2019 - 11:20 PM EST / 2019.02.18 0420 UTC
Wind: from the SSE (160 degrees) at 3 MPH (3 KT):0
Visibility: greater than 7 mile(s):0
Temperature: 32 F (0 C)
Dew Point: 30 F (-1 C)
Relative Humidity: 92%
Pressure (altimeter): 30.27 in. Hg (1025 hPa)
ob: LATI 180420Z 16003KT CAVOK M00/M01 Q1025 NOSIG
cycle: 4

Station Type Date Time Source
LATI TAF 2019/02/17 18:27 UTC NOAA

TAF TAF LATI 171700Z 1718/1818 VRB03KT CAVOK
TEMPO 1811/1816 33010KT


Example: see airport list